ENRS

Røst Airport

Airport
ICAO code
ENRS
IATA Code
RET
Summary
ICAO Region
EUR
ICAO Territory
Location

Røst, Nordland,

Serving
Røstlandet
Elevation
10 ft
Coordinates
67° 31' 37" N , 12° 6' 9" E
KCC
Metar
Observation
ENRS 272050Z 25022KT 9999 VCSH FEW018 BKN030 05/01 Q0997
Station
Rost Flyplass
Date/Time
2023-01-27 20:50:00
Wind direction
250°
Wind speed
22 kts
Lowest cloud amount
few clouds
Temperature
5°C
Dew point
1°C
Humidity
75%
QNH
997 hPa
Weather condition
in vicinity: showers

Description

Regional airport serving the island and municipality of Røst in Nordland, Norway.

Climatology

Subpolar Oceanic climate (Köppen climate classification Cfc) - uniform precipitation distribution, temperatures are moderated by the proximity of the ocean and warm currents - cool summers and comparatively mild winters.

Runways

Designator Length Width Surface Rops
3/21 880 0 UNK No/No

Airport map

Aerial View

SKYbrary Partners:

Safety knowledge contributed by: